createdAt,value
2023-02-06T00:00:23.311Z,20.785714
2023-02-06T00:05:25.689Z,24.000000
2023-02-06T00:10:27.898Z,24.000000
2023-02-06T00:15:30.031Z,24.000000
2023-02-06T00:20:32.630Z,26.333333
2023-02-06T00:25:35.168Z,31.000000
2023-02-06T00:30:16.785Z,30.666667
2023-02-06T00:35:18.926Z,30.000000
2023-02-06T00:40:22.093Z,30.357143
2023-02-06T00:45:24.697Z,31.000000
2023-02-06T00:50:27.386Z,31.333333
2023-02-06T00:55:29.983Z,32.000000
2023-02-06T01:00:32.122Z,33.333333
2023-02-06T01:05:34.957Z,36.000000
2023-02-06T01:10:16.360Z,35.333333
2023-02-06T01:15:18.238Z,34.000000
2023-02-06T01:20:20.078Z,37.333333
2023-02-06T01:25:22.903Z,44.000000
2023-02-06T01:30:24.985Z,61.333333
2023-02-06T01:35:26.787Z,96.000000
2023-02-06T01:40:29.124Z,84.666667
2023-02-06T01:45:31.159Z,62.000000
2023-02-06T01:50:33.030Z,63.333333
2023-02-06T01:55:35.877Z,66.000000
2023-02-06T02:00:17.070Z,60.000000
2023-02-06T02:05:18.929Z,48.000000
2023-02-06T02:10:21.115Z,46.000000
2023-02-06T02:15:23.279Z,42.000000
2023-02-06T02:20:25.037Z,51.666667
2023-02-06T02:25:27.308Z,71.000000
2023-02-06T02:30:29.508Z,75.666667
2023-02-06T02:35:31.593Z,85.000000
2023-02-06T02:40:33.447Z,81.666667
2023-02-06T02:45:36.369Z,75.000000
2023-02-06T02:50:17.976Z,91.666667
2023-02-06T02:55:20.507Z,125.000000
2023-02-06T03:00:22.253Z,119.642857
2023-02-06T03:05:24.165Z,110.000000
2023-02-06T03:10:26.352Z,105.000000
2023-02-06T03:15:28.053Z,95.000000
2023-02-06T03:20:29.807Z,114.000000
2023-02-06T03:25:31.776Z,152.000000
2023-02-06T03:30:33.626Z,131.000000
2023-02-06T03:35:36.466Z,89.000000
2023-02-06T03:40:17.902Z,96.333333
2023-02-06T03:45:19.983Z,111.000000
2023-02-06T03:50:21.982Z,131.000000
2023-02-06T03:55:23.898Z,161.000000
2023-02-06T04:00:26.228Z,193.666667
2023-02-06T04:05:28.002Z,259.000000
2023-02-06T04:10:29.955Z,274.000000
2023-02-06T04:15:31.742Z,304.000000
2023-02-06T04:20:33.780Z,269.333333
2023-02-06T04:25:36.397Z,200.000000
2023-02-06T04:30:17.942Z,201.000000
2023-02-06T04:35:20.093Z,203.000000
2023-02-06T04:40:22.157Z,213.000000
2023-02-06T04:45:24.171Z,228.000000
2023-02-06T04:50:26.189Z,203.666667
2023-02-06T04:55:28.322Z,155.000000
2023-02-06T05:00:30.675Z,153.000000
2023-02-06T05:05:33.042Z,149.000000
2023-02-06T05:10:34.936Z,149.333333
2023-02-06T05:15:16.604Z,150.000000
2023-02-06T05:20:18.895Z,159.000000
2023-02-06T05:25:20.991Z,177.000000
2023-02-06T05:30:23.184Z,221.642857
2023-02-06T05:35:25.473Z,302.000000
2023-02-06T05:40:27.533Z,256.666667
2023-02-06T05:45:30.602Z,166.000000
2023-02-06T05:50:33.330Z,161.666667
2023-02-06T05:55:35.419Z,153.000000
2023-02-06T06:00:17.008Z,222.666667
2023-02-06T06:05:19.051Z,362.000000
2023-02-06T06:10:21.195Z,293.000000
2023-02-06T06:15:22.910Z,155.000000
2023-02-06T06:20:24.942Z,162.000000
2023-02-06T06:25:27.070Z,176.000000
2023-02-06T06:30:28.917Z,176.333333
2023-02-06T06:35:30.969Z,177.000000
2023-02-06T06:40:33.376Z,175.666667
2023-02-06T06:45:35.577Z,173.000000
2023-02-06T06:50:16.851Z,178.333333
2023-02-06T06:55:18.966Z,189.000000
2023-02-06T07:00:20.812Z,175.666667
2023-02-06T07:05:23.469Z,149.000000
2023-02-06T07:10:25.062Z,177.000000
2023-02-06T07:15:27.537Z,233.000000
2023-02-06T07:20:29.876Z,211.333333
2023-02-06T07:25:32.187Z,168.000000
2023-02-06T07:30:33.964Z,159.333333
2023-02-06T07:35:16.244Z,142.000000
2023-02-06T07:40:18.369Z,207.666667
2023-02-06T07:45:20.672Z,339.000000
2023-02-06T07:50:22.679Z,259.000000
2023-02-06T07:55:24.643Z,115.000000
2023-02-06T08:00:26.937Z,123.333333
2023-02-06T08:05:28.900Z,140.000000
2023-02-06T08:10:31.609Z,139.333333
2023-02-06T08:15:33.776Z,138.000000
2023-02-06T08:20:36.322Z,123.333333
2023-02-06T08:25:17.492Z,94.000000
2023-02-06T08:30:20.135Z,94.000000
2023-02-06T08:35:21.943Z,94.000000
2023-02-06T08:40:24.475Z,94.357143
2023-02-06T08:45:26.188Z,95.000000
2023-02-06T08:50:28.115Z,93.666667
2023-02-06T08:55:30.688Z,91.000000
2023-02-06T09:00:32.842Z,95.333333
2023-02-06T09:05:35.403Z,104.000000
2023-02-06T09:10:27.126Z,105.666667
2023-02-06T09:15:18.871Z,109.000000
2023-02-06T09:20:20.890Z,104.666667
2023-02-06T09:25:22.826Z,96.000000
2023-02-06T09:30:24.764Z,97.000000
2023-02-06T09:35:26.865Z,99.000000
2023-02-06T09:40:28.810Z,98.000000
2023-02-06T09:45:30.668Z,96.000000
2023-02-06T09:50:32.852Z,96.666667
2023-02-06T09:55:35.913Z,98.000000
2023-02-06T10:00:17.257Z,99.000000
2023-02-06T10:05:19.496Z,101.000000
2023-02-06T10:10:22.039Z,103.666667
2023-02-06T10:15:23.996Z,109.000000
2023-02-06T10:20:25.794Z,114.666667
2023-02-06T10:25:27.784Z,126.000000
2023-02-06T10:30:29.957Z,119.333333
2023-02-06T10:35:31.807Z,106.000000
2023-02-06T10:40:34.148Z,105.000000
2023-02-06T10:45:22.042Z,103.000000
2023-02-06T10:50:17.986Z,100.666667
2023-02-06T10:55:19.771Z,96.000000
2023-02-06T11:00:22.065Z,97.000000
2023-02-06T11:05:24.041Z,99.000000
2023-02-06T11:10:26.110Z,96.666667
2023-02-06T11:15:28.296Z,92.000000
2023-02-06T11:20:30.406Z,94.000000
2023-02-06T11:25:32.483Z,98.000000
2023-02-06T11:30:34.679Z,95.333333
2023-02-06T11:35:16.650Z,90.000000
2023-02-06T11:40:18.841Z,93.333333
2023-02-06T11:45:20.761Z,100.000000
2023-02-06T11:50:23.297Z,93.928571
2023-02-06T11:55:25.565Z,83.000000
2023-02-06T12:00:28.047Z,82.666667
2023-02-06T12:05:29.998Z,82.000000
2023-02-06T12:10:32.201Z,83.000000
2023-02-06T12:15:45.874Z,85.000000
2023-02-06T12:20:16.236Z,80.000000
2023-02-06T12:25:18.330Z,70.000000
2023-02-06T12:30:20.344Z,69.000000
2023-02-06T12:35:22.569Z,67.000000
2023-02-06T12:40:24.519Z,67.000000
2023-02-06T12:45:26.633Z,67.000000
2023-02-06T12:50:29.305Z,68.000000
2023-02-06T12:55:31.809Z,70.000000
2023-02-06T13:00:34.560Z,69.333333
2023-02-06T13:05:16.471Z,68.000000
2023-02-06T13:10:18.677Z,68.666667
2023-02-06T13:15:20.917Z,70.000000
2023-02-06T13:20:22.810Z,68.214286
2023-02-06T13:25:25.438Z,65.000000
2023-02-06T13:30:27.410Z,66.333333
2023-02-06T13:35:29.527Z,69.000000
2023-02-06T13:40:31.448Z,69.666667
2023-02-06T13:45:33.848Z,71.000000
2023-02-06T13:50:35.689Z,68.333333
2023-02-06T13:55:17.542Z,63.000000
2023-02-06T14:00:19.749Z,69.333333
2023-02-06T14:05:22.311Z,82.000000
2023-02-06T14:10:24.309Z,84.333333
2023-02-06T14:15:26.124Z,89.000000
2023-02-06T14:20:28.263Z,82.666667
2023-02-06T14:25:30.452Z,70.000000
2023-02-06T14:30:32.582Z,70.666667
2023-02-06T14:35:35.324Z,72.000000
2023-02-06T14:40:16.688Z,72.000000
2023-02-06T14:45:18.677Z,72.000000
2023-02-06T14:50:20.811Z,71.000000
2023-02-06T14:55:23.260Z,69.000000
2023-02-06T15:00:25.140Z,69.333333
2023-02-06T15:05:27.126Z,70.000000
2023-02-06T15:10:29.514Z,67.000000
2023-02-06T15:15:31.612Z,61.000000
2023-02-06T15:20:34.490Z,65.333333
2023-02-06T15:25:36.345Z,74.000000
2023-02-06T15:30:17.672Z,69.000000
2023-02-06T15:35:20.035Z,59.000000
2023-02-06T15:40:21.648Z,65.666667
2023-02-06T15:45:23.695Z,79.000000
2023-02-06T15:50:25.760Z,76.333333
2023-02-06T15:55:27.720Z,71.000000
2023-02-06T16:00:30.063Z,65.666667
2023-02-06T16:05:32.179Z,55.000000
2023-02-06T16:10:34.879Z,53.333333
2023-02-06T16:15:16.080Z,50.000000
2023-02-06T16:20:18.144Z,48.666667
2023-02-06T16:25:20.230Z,46.000000
2023-02-06T16:30:22.516Z,44.571429
2023-02-06T16:35:24.806Z,42.000000
2023-02-06T16:40:26.452Z,36.000000
2023-02-06T16:45:28.403Z,24.000000
2023-02-06T16:50:30.632Z,24.666667
2023-02-06T16:55:33.721Z,26.000000
2023-02-06T17:00:35.782Z,24.666667
2023-02-06T17:05:17.626Z,22.000000
2023-02-06T17:10:19.947Z,21.333333
2023-02-06T17:15:21.780Z,20.000000
2023-02-06T17:20:23.811Z,17.500000
2023-02-06T17:25:26.329Z,13.000000
2023-02-06T17:30:28.229Z,14.000000
2023-02-06T17:35:30.508Z,16.000000
2023-02-06T17:40:33.090Z,16.000000
2023-02-06T17:45:35.261Z,16.000000
2023-02-06T17:50:16.960Z,15.666667
2023-02-06T17:55:19.016Z,15.000000
2023-02-06T18:00:21.273Z,15.333333
2023-02-06T18:05:23.619Z,16.000000
2023-02-06T18:10:26.170Z,16.000000
2023-02-06T18:15:29.890Z,16.000000
2023-02-06T18:20:30.509Z,16.666667
2023-02-06T18:25:32.611Z,18.000000
2023-02-06T18:30:34.732Z,18.000000
2023-02-06T18:35:16.731Z,18.000000
2023-02-06T18:40:18.988Z,16.666667
2023-02-06T18:45:20.889Z,14.000000
2023-02-06T18:50:22.798Z,15.428571
2023-02-06T18:55:25.041Z,18.000000
2023-02-06T19:00:27.071Z,18.666667
2023-02-06T19:05:29.256Z,20.000000
2023-02-06T19:10:30.986Z,19.333333
2023-02-06T19:15:33.029Z,18.000000
2023-02-06T19:20:35.679Z,18.333333
2023-02-06T19:25:17.125Z,19.000000
2023-02-06T19:30:19.459Z,18.666667
2023-02-06T19:35:21.732Z,18.000000
2023-02-06T19:40:24.144Z,17.642857
2023-02-06T19:45:26.482Z,17.000000
2023-02-06T19:50:28.892Z,16.666667
2023-02-06T19:55:31.013Z,16.000000
2023-02-06T20:00:32.847Z,15.666667
2023-02-06T20:05:35.206Z,15.000000
2023-02-06T20:10:16.916Z,14.333333
2023-02-06T20:15:18.914Z,13.000000
2023-02-06T20:20:21.010Z,13.000000
2023-02-06T20:25:23.185Z,13.000000
2023-02-06T20:30:25.258Z,12.666667
2023-02-06T20:35:27.516Z,12.000000
2023-02-06T20:40:30.963Z,11.666667
2023-02-06T20:45:33.947Z,11.000000
2023-02-06T20:50:36.052Z,10.666667
2023-02-06T20:55:18.257Z,10.000000
2023-02-06T21:00:20.579Z,9.333333
2023-02-06T21:05:23.064Z,8.000000
2023-02-06T21:10:25.606Z,9.000000
2023-02-06T21:15:28.968Z,11.000000
2023-02-06T21:20:31.153Z,10.333333
2023-02-06T21:25:34.242Z,9.000000
2023-02-06T21:30:17.165Z,9.000000
2023-02-06T21:35:18.391Z,9.000000
2023-02-06T21:40:20.933Z,9.333333
2023-02-06T21:45:23.518Z,10.000000
2023-02-06T21:50:26.272Z,10.000000
2023-02-06T21:55:28.410Z,10.000000
2023-02-06T22:00:31.331Z,9.666667
2023-02-06T22:05:33.788Z,9.000000
2023-02-06T22:10:15.965Z,9.000000
2023-02-06T22:15:18.460Z,9.000000
2023-02-06T22:20:20.794Z,9.000000
2023-02-06T22:25:23.224Z,9.000000
2023-02-06T22:30:25.524Z,9.333333
2023-02-06T22:35:27.774Z,10.000000
2023-02-06T22:40:30.231Z,9.333333
2023-02-06T22:45:32.739Z,8.000000
2023-02-06T22:50:34.696Z,7.333333
2023-02-06T22:55:16.859Z,6.000000
2023-02-06T23:00:20.294Z,7.333333
2023-02-06T23:05:21.718Z,10.000000
2023-02-06T23:10:23.862Z,9.285714
2023-02-06T23:15:26.089Z,8.000000
2023-02-06T23:20:29.270Z,8.333333
2023-02-06T23:25:31.176Z,9.000000
2023-02-06T23:30:33.773Z,8.666667
2023-02-06T23:35:16.251Z,8.000000
2023-02-06T23:40:18.379Z,8.000000
2023-02-06T23:45:21.340Z,8.000000
2023-02-06T23:50:23.420Z,9.785714
2023-02-06T23:55:26.059Z,13.000000
